KMRB

Eastern Wv Regional / Shepherd Field Airport

Martinsburg, West Virginia, USA
METAR KMRB 210353Z AUTO 25008KT 10SM CLR 09/01 A3008 RMK AO2 SLP186 T00940011
Observed Flight Rules
Jan-21 @ 03:53 UTC (42 minutes ago) Visual Flight Rules
Wind Visibility Clouds
250° at 8 knots 10 miles
  • Clear skies
Temperatures Readings
Current 9°C / 48°F
Dewpoint 1°C / 34°F
Humidity 58%
Altimeter 30.08" Hg
Pressure 1018.6 hPa
Elevation 164
METAR KMRB 210353Z AUTO 25008KT 10SM CLR 09/01 A3008 RMK AO2 SLP186 T00940011
Observed Flight Rules
Jan-21 @ 03:53 UTC
(42 minutes ago)
VFR
Wind Visibility
250° at 8 knots 10 miles
Clouds
  • Clear skies
Temperature Dewpoint
9°C / 48°F 1°C / 34°F
Humidity Altimeter Pressure
58% 30.08" Hg 1018.6 hPa